Time;durP1;ratioP1;P1;durP2;ratioP2;P2;SDS_P1;SDS_P2;PMS_P1;PMS_P2;Temp;Humidity;BMP_temperature;BMP_pressure;BME280_temperature;BME280_humidity;BME280_pressure;Samples;Min_cycle;Max_cycle;Signal;HPM_P1;HPM_P2
2022/03/30 00:01:10;;;;;;;33.38;15.80;;;7.50;99.90;;;;;;5035374;28;20026;-76
2022/03/30 00:03:36;;;;;;;41.35;17.08;;;7.50;99.90;;;;;;5017335;28;20443;-78
2022/03/30 00:06:04;;;;;;;36.38;16.50;;;7.50;99.90;;;;;;5035966;28;20022;-75
2022/03/30 00:08:30;;;;;;;33.00;15.30;;;7.50;99.90;;;;;;5035199;28;20032;-77
2022/03/30 00:10:56;;;;;;;35.22;16.77;;;7.40;99.90;;;;;;5017387;28;20025;-78
2022/03/30 00:13:22;;;;;;;38.05;16.90;;;7.40;99.90;;;;;;5051810;28;20025;-78
2022/03/30 00:15:48;;;;;;;29.77;15.32;;;7.40;99.90;;;;;;5055314;28;20029;-79
2022/03/30 00:18:14;;;;;;;35.78;16.38;;;7.30;99.90;;;;;;5054807;28;20039;-78
2022/03/30 00:20:39;;;;;;;38.78;16.85;;;7.30;99.90;;;;;;5037311;28;20397;-75
2022/03/30 00:23:05;;;;;;;42.70;17.55;;;7.30;99.90;;;;;;5037257;28;20029;-78
2022/03/30 00:25:31;;;;;;;36.08;15.85;;;7.30;99.90;;;;;;5055041;28;20039;-78
2022/03/30 00:27:57;;;;;;;37.78;16.08;;;7.30;99.90;;;;;;5038073;28;20032;-79
2022/03/30 00:30:23;;;;;;;41.92;16.88;;;7.30;99.90;;;;;;5037717;28;20037;-79
2022/03/30 00:32:49;;;;;;;34.08;15.70;;;7.20;99.90;;;;;;5066909;28;20056;-77
2022/03/30 00:35:15;;;;;;;35.97;17.75;;;7.20;99.90;;;;;;5056460;28;20064;-79
2022/03/30 00:37:41;;;;;;;31.35;16.27;;;7.20;99.90;;;;;;5033640;28;20400;-76
2022/03/30 00:40:11;;;;;;;29.95;16.75;;;7.10;99.90;;;;;;5055811;28;20025;-78
2022/03/30 00:42:37;;;;;;;38.15;15.85;;;7.10;99.90;;;;;;5042392;28;20393;-79
2022/03/30 00:45:11;;;;;;;34.88;17.25;;;7.00;99.90;;;;;;5047008;28;20058;-76
2022/03/30 00:47:37;;;;;;;35.63;16.77;;;7.00;99.90;;;;;;5036151;28;20017;-79
2022/03/30 00:50:05;;;;;;;37.97;17.00;;;7.00;99.90;;;;;;5055129;28;20075;-78
2022/03/30 00:52:31;;;;;;;39.22;17.90;;;6.90;99.90;;;;;;5037468;28;20025;-78
2022/03/30 00:54:57;;;;;;;36.17;17.92;;;6.90;99.90;;;;;;5054565;28;20119;-75
2022/03/30 00:57:24;;;;;;;37.58;17.10;;;6.90;99.90;;;;;;5054256;28;20103;-75
2022/03/30 00:59:50;;;;;;;41.35;18.13;;;6.80;99.90;;;;;;5054124;28;20050;-77
2022/03/30 01:02:17;;;;;;;41.33;18.15;;;6.80;99.90;;;;;;5036462;28;20025;-76
2022/03/30 01:04:45;;;;;;;38.15;16.95;;;6.70;99.90;;;;;;5036393;28;20116;-78
2022/03/30 01:07:12;;;;;;;36.53;16.65;;;6.70;99.90;;;;;;5053660;28;20025;-76
2022/03/30 01:09:37;;;;;;;36.30;17.75;;;6.70;99.90;;;;;;5035840;28;20025;-77
2022/03/30 01:12:04;;;;;;;36.03;17.58;;;6.60;99.90;;;;;;5050844;28;20387;-77
2022/03/30 01:14:31;;;;;;;38.42;18.40;;;6.60;99.90;;;;;;5058732;28;20025;-77
2022/03/30 01:16:57;;;;;;;36.20;16.73;;;6.60;99.90;;;;;;5062211;28;20029;-77
2022/03/30 01:19:29;;;;;;;37.53;17.42;;;6.60;99.90;;;;;;5042347;28;20083;-77
2022/03/30 01:21:55;;;;;;;37.75;17.75;;;6.60;99.90;;;;;;5025553;28;20025;-77
2022/03/30 01:24:21;;;;;;;41.70;17.23;;;6.50;99.90;;;;;;5062365;22;20513;-78
2022/03/30 01:26:47;;;;;;;40.40;17.52;;;6.50;99.90;;;;;;5044867;28;20037;-78
2022/03/30 01:34:42;;;;;;;37.15;16.30;;;6.30;99.90;;;;;;5061750;28;20055;-79
2022/03/30 01:37:10;;;;;;;38.35;17.80;;;6.20;99.90;;;;;;5064576;28;20389;-78
2022/03/30 01:39:35;;;;;;;35.03;17.35;;;6.20;99.90;;;;;;5059876;28;20052;-78
2022/03/30 01:42:01;;;;;;;37.92;18.13;;;6.20;99.90;;;;;;5048803;28;20065;-77
2022/03/30 01:44:27;;;;;;;38.78;17.85;;;6.10;99.90;;;;;;5039709;28;20030;-77
2022/03/30 01:46:52;;;;;;;44.05;18.15;;;6.10;99.90;;;;;;5045021;28;20034;-76
2022/03/30 01:49:22;;;;;;;44.10;17.42;;;6.00;99.90;;;;;;5025883;28;20025;-76
2022/03/30 01:51:58;;;;;;;48.88;18.92;;;5.90;99.90;;;;;;5030908;28;20071;-78
2022/03/30 01:54:27;;;;;;;42.35;16.90;;;5.90;99.90;;;;;;5044848;28;20045;-79
2022/03/30 01:56:55;;;;;;;38.70;18.02;;;5.90;99.90;;;;;;5063723;28;20037;-79
2022/03/30 01:59:21;;;;;;;41.78;18.75;;;5.90;99.90;;;;;;5046925;28;20029;-78
2022/03/30 02:01:47;;;;;;;39.10;19.00;;;5.80;99.90;;;;;;5047241;28;20437;-77
2022/03/30 02:04:14;;;;;;;40.13;17.88;;;5.80;99.90;;;;;;5044774;28;20061;-77
2022/03/30 02:06:40;;;;;;;36.22;18.00;;;5.80;99.90;;;;;;5064320;28;20025;-77
2022/03/30 02:09:06;;;;;;;44.15;17.38;;;5.80;99.90;;;;;;5039886;28;20592;-77
2022/03/30 02:11:33;;;;;;;36.72;18.35;;;5.70;99.90;;;;;;5045508;28;20021;-78
2022/03/30 02:14:00;;;;;;;48.28;18.48;;;5.70;99.90;;;;;;5064476;28;20025;-77
2022/03/30 02:16:25;;;;;;;35.28;18.63;;;5.70;99.90;;;;;;5071119;28;20044;-77
2022/03/30 02:18:51;;;;;;;36.08;17.77;;;5.60;99.90;;;;;;5060021;28;20029;-78
2022/03/30 02:21:17;;;;;;;46.75;18.75;;;5.50;99.90;;;;;;5068062;28;20021;-78
2022/03/30 02:23:47;;;;;;;34.92;17.23;;;5.50;99.90;;;;;;5052816;28;20036;-80
2022/03/30 02:26:14;;;;;;;39.10;17.60;;;5.50;99.90;;;;;;5050033;28;20029;-79
2022/03/30 02:28:41;;;;;;;44.65;19.63;;;5.40;99.90;;;;;;5071345;28;20025;-78
2022/03/30 02:31:07;;;;;;;38.08;16.88;;;5.40;99.90;;;;;;5045683;28;20013;-77
2022/03/30 02:33:33;;;;;;;33.92;18.17;;;5.40;99.90;;;;;;5045541;28;20031;-77
2022/03/30 02:35:59;;;;;;;36.10;17.27;;;5.30;99.90;;;;;;5058825;28;20106;-77
2022/03/30 02:38:24;;;;;;;34.65;18.40;;;5.30;99.90;;;;;;5062673;28;20400;-79
2022/03/30 02:40:50;;;;;;;41.22;19.00;;;5.20;99.90;;;;;;5043205;28;20531;-76
2022/03/30 02:43:19;;;;;;;42.80;18.70;;;5.20;99.90;;;;;;5068699;28;20112;-78
2022/03/30 02:45:46;;;;;;;43.78;18.00;;;5.20;99.90;;;;;;5048810;28;20013;-77
2022/03/30 02:48:18;;;;;;;39.22;18.20;;;5.20;99.90;;;;;;5043997;28;20025;-78
2022/03/30 02:50:53;;;;;;;38.05;17.60;;;5.10;99.90;;;;;;5025214;28;20085;-78
2022/03/30 02:53:20;;;;;;;40.07;18.77;;;5.10;99.90;;;;;;5040693;28;20048;-77
2022/03/30 02:55:46;;;;;;;39.78;17.50;;;5.00;99.90;;;;;;5041358;28;20025;-78
2022/03/30 02:58:12;;;;;;;43.75;17.38;;;5.00;99.90;;;;;;5025746;28;20148;-77
2022/03/30 03:00:39;;;;;;;38.47;16.95;;;4.90;99.90;;;;;;5042577;28;20053;-78
2022/03/30 03:03:07;;;;;;;45.88;18.30;;;4.90;99.90;;;;;;5024681;28;20056;-77
2022/03/30 03:05:33;;;;;;;38.75;17.92;;;4.90;99.90;;;;;;5042320;28;20021;-78
2022/03/30 03:08:00;;;;;;;40.22;18.13;;;4.80;99.90;;;;;;5042646;28;20025;-76
2022/03/30 03:10:26;;;;;;;39.80;17.27;;;4.80;99.90;;;;;;5021975;28;20388;-76
2022/03/30 03:12:53;;;;;;;39.95;18.88;;;4.70;99.90;;;;;;5040784;28;20037;-79
2022/03/30 03:15:19;;;;;;;37.10;17.45;;;4.60;99.90;;;;;;5041150;28;20053;-78
2022/03/30 03:17:45;;;;;;;43.92;19.15;;;4.60;99.90;;;;;;5043605;28;20537;-78
2022/03/30 03:20:13;;;;;;;37.35;17.65;;;4.60;99.90;;;;;;5041140;28;20057;-78
2022/03/30 03:22:40;;;;;;;38.50;17.92;;;4.60;99.90;;;;;;5043120;28;20033;-78
2022/03/30 03:25:06;;;;;;;35.05;17.50;;;4.60;99.90;;;;;;5040187;28;20516;-76
2022/03/30 03:27:32;;;;;;;41.58;17.58;;;4.50;99.90;;;;;;5019625;28;20080;-76
2022/03/30 03:29:58;;;;;;;46.20;17.15;;;4.50;99.90;;;;;;5020083;28;20396;-76
2022/03/30 03:32:24;;;;;;;39.30;17.85;;;4.40;99.90;;;;;;5039058;28;20025;-77
2022/03/30 03:34:49;;;;;;;47.10;18.15;;;4.40;99.90;;;;;;5037839;28;20504;-76
2022/03/30 03:37:15;;;;;;;38.88;17.95;;;4.40;99.90;;;;;;5038632;28;20022;-79
2022/03/30 03:39:42;;;;;;;39.85;17.65;;;4.40;99.90;;;;;;5041695;28;20572;-78
2022/03/30 03:42:08;;;;;;;41.75;18.58;;;4.30;99.90;;;;;;5043578;28;20028;-78
2022/03/30 03:44:33;;;;;;;40.88;18.25;;;4.30;99.90;;;;;;5034828;28;20084;-79
2022/03/30 03:46:59;;;;;;;43.03;19.35;;;4.20;99.90;;;;;;5063211;28;20091;-79
2022/03/30 03:49:24;;;;;;;39.20;18.48;;;4.10;99.90;;;;;;5047366;28;20025;-78
2022/03/30 03:51:50;;;;;;;44.50;18.25;;;4.10;99.90;;;;;;5051065;28;20048;-79
2022/03/30 03:54:16;;;;;;;38.05;19.75;;;4.10;99.90;;;;;;5050853;28;20029;-78
2022/03/30 03:56:41;;;;;;;43.20;18.48;;;4.00;99.90;;;;;;5069115;28;20390;-78
2022/03/30 03:59:07;;;;;;;41.58;19.30;;;4.00;99.90;;;;;;5052275;28;20032;-78
2022/03/30 04:01:34;;;;;;;37.72;19.17;;;4.00;99.90;;;;;;5069604;28;20036;-79
2022/03/30 04:03:59;;;;;;;46.30;19.02;;;4.00;99.90;;;;;;5055291;28;20055;-79
2022/03/30 04:06:25;;;;;;;51.33;19.83;;;4.00;99.90;;;;;;5071084;28;20029;-79
2022/03/30 04:08:51;;;;;;;36.97;18.00;;;3.90;99.90;;;;;;5067724;28;20032;-78
2022/03/30 04:11:16;;;;;;;41.58;18.17;;;3.90;99.90;;;;;;5047234;28;20048;-79
2022/03/30 04:13:42;;;;;;;45.85;18.80;;;3.90;99.90;;;;;;5064615;28;20020;-78
2022/03/30 04:16:08;;;;;;;39.63;19.52;;;3.80;99.90;;;;;;5047434;28;20032;-78
2022/03/30 04:18:33;;;;;;;40.20;17.90;;;3.80;99.90;;;;;;5067471;28;20480;-78
2022/03/30 04:20:59;;;;;;;41.88;19.17;;;3.70;99.90;;;;;;5066944;28;20110;-78
2022/03/30 04:23:24;;;;;;;37.40;17.27;;;3.70;99.90;;;;;;5050591;28;20028;-78
2022/03/30 04:25:50;;;;;;;42.72;19.45;;;3.70;99.90;;;;;;5063452;28;20504;-78
2022/03/30 04:28:17;;;;;;;38.00;19.40;;;3.60;99.90;;;;;;5065270;28;20039;-78
2022/03/30 04:30:43;;;;;;;38.33;19.17;;;3.60;99.90;;;;;;5061801;28;20048;-78
2022/03/30 04:33:13;;;;;;;43.63;18.73;;;3.60;99.90;;;;;;5066167;28;20033;-78
2022/03/30 04:35:39;;;;;;;41.78;19.20;;;3.60;99.90;;;;;;5066018;28;20043;-79
2022/03/30 04:38:05;;;;;;;45.95;18.67;;;3.60;99.90;;;;;;5047545;28;20092;-79
2022/03/30 04:40:32;;;;;;;40.42;20.92;;;3.60;99.90;;;;;;5046789;28;20029;-79
2022/03/30 04:42:57;;;;;;;44.53;19.75;;;3.60;99.90;;;;;;5063618;28;20412;-78
2022/03/30 04:45:23;;;;;;;48.83;20.40;;;3.70;99.90;;;;;;5031108;28;20033;-79
2022/03/30 04:47:50;;;;;;;43.78;20.50;;;3.70;99.90;;;;;;5028921;28;20029;-80
2022/03/30 04:50:15;;;;;;;45.35;18.25;;;3.60;99.90;;;;;;5042823;28;20085;-78
2022/03/30 04:52:42;;;;;;;46.83;20.88;;;3.50;99.90;;;;;;5041483;28;20037;-78
2022/03/30 04:55:09;;;;;;;38.17;17.92;;;3.50;99.90;;;;;;5041421;28;20029;-78
2022/03/30 04:57:36;;;;;;;43.05;19.55;;;3.40;99.90;;;;;;5023165;28;20033;-78
2022/03/30 05:00:03;;;;;;;47.75;20.23;;;3.40;99.90;;;;;;5043964;28;20500;-78
2022/03/30 05:02:32;;;;;;;44.97;20.85;;;3.30;99.90;;;;;;5041621;28;20029;-79
2022/03/30 05:04:57;;;;;;;53.33;21.45;;;3.40;99.90;;;;;;5024076;28;20029;-78
2022/03/30 05:07:24;;;;;;;46.88;21.02;;;3.30;99.90;;;;;;5026497;28;20052;-78
2022/03/30 05:09:49;;;;;;;48.70;20.88;;;3.30;99.90;;;;;;5022729;28;20060;-77
2022/03/30 05:12:15;;;;;;;46.25;20.25;;;3.40;99.90;;;;;;5043116;28;20109;-78
2022/03/30 05:14:41;;;;;;;44.97;20.17;;;3.30;99.90;;;;;;5042566;28;20030;-78
2022/03/30 05:17:08;;;;;;;48.47;22.02;;;3.30;99.90;;;;;;5044011;28;20040;-79
2022/03/30 05:19:34;;;;;;;43.85;20.30;;;3.20;99.90;;;;;;5040853;28;20029;-78
2022/03/30 05:21:59;;;;;;;49.58;22.25;;;3.20;99.90;;;;;;5041685;28;20037;-77
2022/03/30 05:24:25;;;;;;;55.38;24.20;;;3.20;99.90;;;;;;5021721;28;20097;-78
2022/03/30 05:26:53;;;;;;;40.53;19.45;;;3.20;99.90;;;;;;5020240;28;20037;-78
2022/03/30 05:29:19;;;;;;;41.13;20.75;;;3.10;99.90;;;;;;5036878;28;20033;-76
2022/03/30 05:31:45;;;;;;;43.72;20.17;;;3.10;99.90;;;;;;5035945;28;20123;-77
2022/03/30 05:34:11;;;;;;;51.85;21.08;;;3.00;99.90;;;;;;5035858;28;20029;-77
2022/03/30 05:36:37;;;;;;;46.70;20.48;;;3.00;99.90;;;;;;5036598;28;20025;-75
2022/03/30 05:39:03;;;;;;;48.40;22.20;;;3.00;99.90;;;;;;5035490;28;20473;-75
2022/03/30 05:41:30;;;;;;;48.03;22.33;;;3.10;99.90;;;;;;5047859;28;20085;-76
2022/03/30 05:43:56;;;;;;;49.75;20.63;;;3.10;99.90;;;;;;5046618;28;20021;-77
2022/03/30 05:46:21;;;;;;;53.30;22.35;;;3.10;99.90;;;;;;5057887;28;20342;-78
2022/03/30 05:48:48;;;;;;;56.00;20.67;;;3.10;99.90;;;;;;5045100;28;20029;-77
2022/03/30 05:51:13;;;;;;;41.30;20.73;;;3.20;99.90;;;;;;5042157;28;20155;-78
2022/03/30 05:53:39;;;;;;;41.97;20.23;;;3.30;99.90;;;;;;5060699;28;20068;-76
2022/03/30 05:56:05;;;;;;;45.92;21.35;;;3.40;99.90;;;;;;5040763;28;20029;-78
2022/03/30 05:58:31;;;;;;;42.42;20.58;;;3.40;99.90;;;;;;5061478;28;20174;-79
2022/03/30 06:00:56;;;;;;;46.25;21.10;;;3.40;99.90;;;;;;5055144;28;20057;-78
2022/03/30 06:03:23;;;;;;;48.47;18.38;;;3.40;99.90;;;;;;5056348;28;20054;-77
2022/03/30 06:05:50;;;;;;;47.00;21.27;;;3.40;99.90;;;;;;5055860;28;20036;-78
2022/03/30 06:08:16;;;;;;;56.55;20.05;;;3.50;99.90;;;;;;5055949;28;20021;-76
2022/03/30 06:10:42;;;;;;;43.10;20.75;;;3.50;99.90;;;;;;5042142;28;20081;-77
2022/03/30 06:13:07;;;;;;;45.65;20.42;;;3.60;99.90;;;;;;5059460;28;20033;-76
2022/03/30 06:15:33;;;;;;;45.25;21.13;;;3.70;99.90;;;;;;5041907;28;20077;-78
2022/03/30 06:17:59;;;;;;;46.05;20.67;;;3.70;99.90;;;;;;5041658;28;20078;-77
2022/03/30 06:20:26;;;;;;;46.72;20.35;;;3.80;99.90;;;;;;5059940;28;20024;-78
2022/03/30 06:22:53;;;;;;;41.00;19.95;;;3.90;99.90;;;;;;5059754;28;20025;-78
2022/03/30 06:25:24;;;;;;;44.22;19.52;;;4.00;99.90;;;;;;5042541;28;20096;-77
2022/03/30 06:27:50;;;;;;;38.58;18.48;;;4.20;99.90;;;;;;5060972;28;20028;-76
2022/03/30 06:30:16;;;;;;;47.70;20.30;;;4.40;99.90;;;;;;5060255;28;20032;-78
2022/03/30 06:32:41;;;;;;;35.05;17.33;;;4.60;99.90;;;;;;5044733;28;20028;-77
2022/03/30 06:35:07;;;;;;;47.00;20.48;;;4.80;99.90;;;;;;5061611;28;20048;-77
2022/03/30 06:37:33;;;;;;;35.97;18.15;;;5.00;99.90;;;;;;5062889;28;20028;-78
2022/03/30 06:39:59;;;;;;;39.03;19.00;;;5.20;99.90;;;;;;5062802;28;20066;-79
2022/03/30 06:42:24;;;;;;;42.25;18.50;;;5.50;99.90;;;;;;5045086;28;20055;-78
2022/03/30 06:44:50;;;;;;;35.70;16.90;;;5.70;99.90;;;;;;5034420;28;20025;-79
2022/03/30 06:47:16;;;;;;;37.05;17.58;;;6.00;99.90;;;;;;5023938;28;20024;-78
2022/03/30 06:49:42;;;;;;;36.45;17.30;;;6.20;99.90;;;;;;5043041;28;20022;-77
2022/03/30 06:52:09;;;;;;;39.75;17.90;;;6.40;99.90;;;;;;5044072;28;20021;-78
2022/03/30 06:54:37;;;;;;;34.28;17.33;;;6.40;99.90;;;;;;5042548;28;20109;-78
2022/03/30 06:57:05;;;;;;;39.25;18.70;;;6.00;99.90;;;;;;5042518;28;20480;-78
2022/03/30 06:59:31;;;;;;;38.03;16.80;;;5.80;99.90;;;;;;5042834;28;20038;-79
2022/03/30 07:01:58;;;;;;;36.00;16.35;;;5.50;99.90;;;;;;5023839;28;20026;-79
2022/03/30 07:04:24;;;;;;;30.63;16.25;;;5.40;99.90;;;;;;5041278;28;20433;-79
2022/03/30 07:12:19;;;;;;;40.70;16.88;;;6.10;99.90;;;;;;5041916;28;20021;-76
2022/03/30 07:14:46;;;;;;;28.77;15.65;;;6.40;99.90;;;;;;5039689;28;20029;-78
2022/03/30 07:17:13;;;;;;;35.20;16.92;;;6.60;99.90;;;;;;5040749;28;20087;-77
2022/03/30 07:19:40;;;;;;;42.05;16.38;;;6.90;99.90;;;;;;5040822;28;20034;-78
2022/03/30 07:22:06;;;;;;;30.73;16.63;;;7.30;99.90;;;;;;5020391;28;20559;-80
2022/03/30 07:24:32;;;;;;;31.52;17.30;;;7.30;99.90;;;;;;5045881;22;20033;-74
2022/03/30 07:26:57;;;;;;;32.38;15.23;;;7.50;99.90;;;;;;5018648;28;20038;-80
2022/03/30 07:29:23;;;;;;;32.30;15.80;;;7.70;99.90;;;;;;5037459;28;20033;-78
2022/03/30 07:31:48;;;;;;;30.98;15.20;;;7.80;99.90;;;;;;5038821;28;20081;-77
2022/03/30 07:34:14;;;;;;;29.98;15.43;;;8.00;99.90;;;;;;5019613;28;20025;-78
2022/03/30 07:36:40;;;;;;;30.80;15.85;;;8.30;99.90;;;;;;5020133;28;20025;-76
2022/03/30 07:39:06;;;;;;;32.50;16.38;;;8.70;99.90;;;;;;5018782;28;20510;-78
2022/03/30 07:41:31;;;;;;;29.27;16.02;;;8.90;99.90;;;;;;5037299;28;20025;-77
2022/03/30 07:43:57;;;;;;;33.20;16.30;;;9.20;99.90;;;;;;5021663;28;20436;-80
2022/03/30 07:46:22;;;;;;;32.58;16.23;;;9.40;99.90;;;;;;5037849;28;20017;-78
2022/03/30 07:48:48;;;;;;;32.20;16.00;;;9.60;99.90;;;;;;5037349;28;20029;-78
2022/03/30 07:51:14;;;;;;;33.40;16.38;;;9.70;99.90;;;;;;5056029;28;20433;-78
2022/03/30 07:53:39;;;;;;;30.58;16.75;;;9.90;99.90;;;;;;5038107;28;20436;-78
2022/03/30 07:56:05;;;;;;;34.33;17.08;;;10.00;99.90;;;;;;5038099;28;20039;-78
2022/03/30 07:58:31;;;;;;;31.33;16.83;;;10.20;99.90;;;;;;5037447;28;20369;-79
2022/03/30 08:00:56;;;;;;;32.30;16.33;;;10.10;99.90;;;;;;5038185;28;20112;-79
2022/03/30 08:03:22;;;;;;;36.03;16.63;;;10.20;99.90;;;;;;5055933;28;20025;-78
2022/03/30 08:05:47;;;;;;;34.45;16.95;;;10.30;99.90;;;;;;5037171;28;20029;-77
2022/03/30 08:08:13;;;;;;;34.25;16.83;;;10.30;99.90;;;;;;5054972;28;20021;-78
2022/03/30 08:10:39;;;;;;;38.17;17.70;;;10.50;99.90;;;;;;5055439;28;20040;-76
2022/03/30 08:13:05;;;;;;;36.65;17.48;;;10.60;99.90;;;;;;5037164;28;20021;-77
2022/03/30 08:15:32;;;;;;;42.28;18.20;;;10.80;99.90;;;;;;5054903;28;20025;-78
2022/03/30 08:17:58;;;;;;;34.83;17.17;;;11.00;99.90;;;;;;5037222;28;20362;-75
2022/03/30 08:23:09;;;;;;;31.63;16.33;;;11.40;99.90;;;;;;5054916;28;20059;-76
2022/03/30 08:25:35;;;;;;;27.40;15.10;;;11.50;99.90;;;;;;5037292;28;20072;-77
2022/03/30 08:28:02;;;;;;;31.90;15.52;;;11.60;99.90;;;;;;5038618;28;20136;-79
2022/03/30 08:30:28;;;;;;;29.40;15.82;;;11.30;99.90;;;;;;5041399;28;20025;-77
2022/03/30 08:32:54;;;;;;;31.23;15.55;;;11.40;99.90;;;;;;5062252;28;20043;-75
2022/03/30 08:35:21;;;;;;;28.92;14.50;;;11.40;99.90;;;;;;5036999;28;20078;-78
2022/03/30 08:37:47;;;;;;;28.45;14.35;;;11.30;99.90;;;;;;5037016;28;20032;-77
2022/03/30 08:40:13;;;;;;;26.98;13.88;;;11.30;99.90;;;;;;5054849;28;20044;-79
2022/03/30 08:42:40;;;;;;;24.02;13.65;;;11.50;99.90;;;;;;5036950;28;20484;-77
2022/03/30 08:45:07;;;;;;;28.45;13.38;;;11.70;99.90;;;;;;5024857;28;20025;-76
2022/03/30 08:47:35;;;;;;;29.15;12.95;;;12.00;98.50;;;;;;5018016;28;20017;-78
2022/03/30 08:50:01;;;;;;;25.77;11.95;;;11.90;96.70;;;;;;5017012;28;20469;-77
2022/03/30 08:52:26;;;;;;;27.50;12.50;;;11.70;97.60;;;;;;5017082;28;20025;-75
2022/03/30 08:54:52;;;;;;;25.48;12.77;;;11.80;99.20;;;;;;5034937;28;20022;-78
2022/03/30 08:57:19;;;;;;;26.30;12.68;;;12.10;98.80;;;;;;5017300;28;20029;-78
2022/03/30 09:00:16;;;;;;;24.30;11.82;;;12.40;95.40;;;;;;5035230;28;20025;-76
2022/03/30 09:02:45;;;;;;;22.25;11.70;;;12.40;94.90;;;;;;5016821;28;20021;-78
2022/03/30 09:05:15;;;;;;;26.98;13.00;;;12.60;92.60;;;;;;5016990;28;20017;-77
2022/03/30 09:07:43;;;;;;;25.95;12.95;;;12.90;91.00;;;;;;5034648;28;20477;-76
2022/03/30 09:10:20;;;;;;;27.40;12.93;;;12.90;90.10;;;;;;5017015;28;20256;-76
2022/03/30 09:12:48;;;;;;;25.02;12.30;;;13.00;90.20;;;;;;5016832;28;20028;-77
2022/03/30 09:15:14;;;;;;;28.50;12.63;;;12.80;89.00;;;;;;5016702;28;20393;-77
2022/03/30 09:17:42;;;;;;;26.13;12.43;;;12.80;87.10;;;;;;5016580;28;20025;-76
2022/03/30 09:20:23;;;;;;;22.35;12.15;;;13.00;87.00;;;;;;5017158;28;20025;-78
2022/03/30 09:22:52;;;;;;;28.15;12.52;;;13.00;85.80;;;;;;5018282;28;20025;-79
2022/03/30 09:25:18;;;;;;;24.67;12.75;;;12.70;87.30;;;;;;5017248;28;20428;-77
2022/03/30 09:27:46;;;;;;;24.65;12.32;;;12.70;90.20;;;;;;5027138;28;20017;-77
2022/03/30 09:30:17;;;;;;;23.63;12.85;;;13.00;85.70;;;;;;5032621;28;20026;-76
2022/03/30 09:32:47;;;;;;;31.27;13.15;;;13.00;85.40;;;;;;5029109;28;20030;-76
2022/03/30 09:35:28;;;;;;;28.55;12.98;;;13.30;84.70;;;;;;5022816;28;20021;-78
2022/03/30 09:38:15;;;;;;;23.40;12.20;;;13.30;84.10;;;;;;5049218;28;20266;-78
2022/03/30 09:40:57;;;;;;;24.48;12.15;;;13.40;82.70;;;;;;5048157;28;20026;-77
2022/03/30 09:43:29;;;;;;;21.35;11.80;;;13.30;84.10;;;;;;5036908;28;20026;-78
2022/03/30 09:46:15;;;;;;;24.83;11.45;;;13.30;83.60;;;;;;5059443;28;20170;-78
2022/03/30 09:48:49;;;;;;;23.92;11.35;;;13.10;83.20;;;;;;5060062;28;20020;-77
2022/03/30 09:51:19;;;;;;;19.17;10.90;;;12.90;84.10;;;;;;5041096;28;20507;-77
2022/03/30 09:53:46;;;;;;;23.70;12.15;;;12.60;85.60;;;;;;5059029;28;20388;-78
2022/03/30 09:56:20;;;;;;;17.63;9.82;;;12.80;83.50;;;;;;5040783;28;20032;-77
2022/03/30 09:58:47;;;;;;;22.23;11.43;;;13.00;84.20;;;;;;5040422;28;20029;-77
2022/03/30 10:01:23;;;;;;;19.33;10.55;;;13.20;82.30;;;;;;5040996;28;20056;-75
2022/03/30 10:03:59;;;;;;;20.63;10.85;;;13.30;82.20;;;;;;5043109;28;20047;-77
2022/03/30 10:06:32;;;;;;;;;;;13.70;79.90;;;;;;5041954;28;20132;-77
2022/03/30 10:08:58;;;;;;;20.90;8.95;;;13.80;78.80;;;;;;5058574;28;19909;-77
2022/03/30 10:11:27;;;;;;;20.50;10.45;;;13.80;77.50;;;;;;5060197;28;20464;-80
2022/03/30 10:13:59;;;;;;;19.63;8.80;;;13.80;73.90;;;;;;5041761;28;20096;-77
2022/03/30 10:16:26;;;;;;;16.88;8.35;;;14.00;73.60;;;;;;5042006;28;20025;-77
2022/03/30 10:18:52;;;;;;;15.68;8.23;;;14.30;73.30;;;;;;5042130;28;20021;-80
2022/03/30 10:21:30;;;;;;;11.90;6.63;;;14.50;70.00;;;;;;5040210;28;20523;-78
2022/03/30 10:24:33;;;;;;;11.88;7.55;;;14.50;69.90;;;;;;5040710;28;20096;-75
2022/03/30 10:27:26;;;;;;;12.70;7.63;;;14.60;68.50;;;;;;5039888;28;20496;-76
2022/03/30 10:29:54;;;;;;;14.93;7.53;;;14.70;68.20;;;;;;5039748;28;20437;-76
2022/03/30 10:32:24;;;;;;;15.90;7.95;;;14.80;67.70;;;;;;5040075;28;20021;-76
2022/03/30 10:34:53;;;;;;;13.55;8.05;;;14.50;67.60;;;;;;5038469;28;20392;-75
2022/03/30 10:37:38;;;;;;;16.15;7.63;;;14.20;68.70;;;;;;5039172;28;20032;-75
2022/03/30 10:40:04;;;;;;;17.02;8.27;;;14.00;70.00;;;;;;5056695;28;20025;-75
2022/03/30 10:42:48;;;;;;;17.73;7.90;;;14.20;69.30;;;;;;5038205;28;20036;-76
2022/03/30 10:45:39;;;;;;;12.88;7.07;;;14.10;68.60;;;;;;5024208;28;20022;-76
2022/03/30 10:48:19;;;;;;;18.35;7.70;;;14.40;70.00;;;;;;5036334;28;20018;-75
2022/03/30 10:50:46;;;;;;;13.63;7.45;;;14.60;67.10;;;;;;5036052;28;20432;-76
2022/03/30 10:53:39;;;;;;;14.35;8.18;;;14.70;66.70;;;;;;5036548;28;20029;-76
2022/03/30 10:56:08;;;;;;;17.95;7.60;;;14.60;66.60;;;;;;5018354;28;20079;-75
2022/03/30 10:59:00;;;;;;;15.45;7.40;;;14.70;67.30;;;;;;5018813;28;20052;-77
2022/03/30 11:01:34;;;;;;;12.77;7.65;;;14.80;67.50;;;;;;5036103;28;20452;-76
2022/03/30 11:04:18;;;;;;;13.57;8.10;;;14.80;68.50;;;;;;5018988;28;20052;-76
2022/03/30 11:06:46;;;;;;;16.77;8.10;;;15.00;66.30;;;;;;5019354;28;20022;-76
2022/03/30 11:09:28;;;;;;;15.52;8.60;;;15.00;65.40;;;;;;5036223;28;20025;-77
2022/03/30 11:12:23;;;;;;;16.35;8.00;;;14.60;66.90;;;;;;5057235;28;20077;-76
2022/03/30 11:15:03;;;;;;;13.82;8.27;;;14.80;66.50;;;;;;5008899;28;20400;-76
2022/03/30 11:17:39;;;;;;;15.85;8.75;;;14.80;66.10;;;;;;5038965;28;20056;-76
2022/03/30 11:20:08;;;;;;;14.65;8.23;;;15.00;66.70;;;;;;5038613;28;20051;-77
2022/03/30 11:22:36;;;;;;;17.33;8.25;;;15.30;65.90;;;;;;5058439;28;20017;-76
2022/03/30 11:25:10;;;;;;;14.50;8.35;;;15.10;65.90;;;;;;5057490;28;20029;-78
2022/03/30 11:27:38;;;;;;;13.20;8.77;;;15.00;65.50;;;;;;5055977;28;20018;-76
2022/03/30 11:30:36;;;;;;;16.00;7.28;;;15.00;67.10;;;;;;5055137;28;20036;-77
2022/03/30 11:33:06;;;;;;;13.93;8.20;;;15.00;66.40;;;;;;5054901;28;20024;-76
2022/03/30 11:35:39;;;;;;;15.52;8.05;;;14.70;66.70;;;;;;5055150;28;20025;-77
2022/03/30 11:38:15;;;;;;;12.30;7.93;;;14.70;67.20;;;;;;5036687;28;20178;-77
2022/03/30 11:40:45;;;;;;;12.80;8.50;;;14.80;64.60;;;;;;5036564;28;20036;-76
2022/03/30 11:43:12;;;;;;;14.95;8.18;;;15.10;66.00;;;;;;5037270;28;20114;-76
2022/03/30 11:45:38;;;;;;;20.10;9.57;;;15.40;64.90;;;;;;5031030;28;20615;-76
2022/03/30 11:48:07;;;;;;;13.52;9.20;;;15.50;64.20;;;;;;5036931;28;20159;-76
2022/03/30 11:50:46;;;;;;;15.40;9.57;;;15.60;64.60;;;;;;5036859;28;20021;-76
2022/03/30 11:53:21;;;;;;;14.55;9.80;;;15.70;65.80;;;;;;5055007;28;20060;-77
2022/03/30 11:55:59;;;;;;;15.30;10.20;;;15.60;63.70;;;;;;5036548;28;20025;-77
2022/03/30 11:58:36;;;;;;;15.77;9.98;;;15.60;63.50;;;;;;5055097;28;20488;-76
2022/03/30 12:01:09;;;;;;;14.48;10.23;;;15.70;63.00;;;;;;5037696;28;20376;-77
2022/03/30 12:03:35;;;;;;;18.30;10.38;;;15.60;62.80;;;;;;5051277;28;20047;-77
2022/03/30 12:06:03;;;;;;;14.27;9.95;;;15.20;64.10;;;;;;5037272;28;20025;-76
2022/03/30 12:08:48;;;;;;;13.68;9.23;;;15.10;65.80;;;;;;5044584;28;20025;-77
2022/03/30 12:11:16;;;;;;;12.95;8.25;;;15.30;64.70;;;;;;5018345;28;20021;-77
2022/03/30 12:13:42;;;;;;;14.98;8.65;;;15.40;64.60;;;;;;5016836;28;20313;-77
2022/03/30 12:16:14;;;;;;;13.73;8.63;;;15.50;64.70;;;;;;5034809;28;20524;-77
2022/03/30 12:18:50;;;;;;;13.38;8.38;;;15.30;65.00;;;;;;5034252;28;20056;-76
2022/03/30 12:21:21;;;;;;;18.50;12.30;;;15.20;64.10;;;;;;5034319;28;20022;-76
2022/03/30 12:23:59;;;;;;;20.65;13.48;;;15.00;65.20;;;;;;5034348;28;20029;-76
2022/03/30 12:26:25;;;;;;;17.70;11.68;;;14.90;64.40;;;;;;5016390;28;20026;-76
2022/03/30 12:29:00;;;;;;;16.67;11.77;;;14.60;65.50;;;;;;5016053;28;20029;-76
2022/03/30 12:31:26;;;;;;;20.45;11.07;;;14.40;66.10;;;;;;5033859;28;20079;-77
2022/03/30 12:33:51;;;;;;;14.88;9.23;;;14.70;66.40;;;;;;5033576;28;20025;-77
2022/03/30 12:36:19;;;;;;;16.27;10.52;;;14.90;66.60;;;;;;5015845;28;20389;-76
2022/03/30 12:38:47;;;;;;;14.25;9.68;;;15.50;66.30;;;;;;5033502;28;20071;-76
2022/03/30 12:41:26;;;;;;;16.60;9.30;;;15.90;63.60;;;;;;5033388;28;20033;-77
2022/03/30 12:44:03;;;;;;;20.40;10.02;;;15.60;64.10;;;;;;5018229;28;20079;-76
2022/03/30 12:46:30;;;;;;;13.88;8.52;;;15.20;64.20;;;;;;5053283;28;20446;-77
2022/03/30 12:49:06;;;;;;;14.23;8.57;;;15.00;65.60;;;;;;5053371;28;20096;-77
2022/03/30 12:51:33;;;;;;;12.55;8.05;;;14.50;65.90;;;;;;5035344;28;20049;-79
2022/03/30 12:54:00;;;;;;;15.20;8.38;;;14.70;67.60;;;;;;5035294;28;20369;-76
2022/03/30 12:56:27;;;;;;;14.27;8.10;;;15.00;64.60;;;;;;5053463;28;20072;-77